SpazioLink.com il tuo mini portale

Terremoti in Italia, posizione geografica

Spaziolink il MiniPortale

Home Sfondi Screenmates SuperEnalotto Posizione navi Terremoti Calendario feste Barzellette Frasi utili Giochi Meteo Gifs Software Ricerca
Lista dei terremoti in Italia in tempo reale dopo l'elaborazione dei valori rilevati dai sensori dislocati nelle zone interessate, comprendenti gli eventi sismici di elevata magnitudo sull'intero globo, per visualizzare la posizione dell'epicentro su Google Maps cliccare sul nome del luogo evidenziato in blu.
DATA ORA MAG ≥ 2 ZONA REGIONE LAT LONG PROF km
20/01/2021 06:05:45 ML 2.0 1 km a sud-est di Bellosguardo (SA) Campania 40.41 15.32 13.9
20/01/2021 05:14:46 ML 2.4 8 km a sud di Moio Alcantara (ME) Sicilia 37.83 15.03 23.8
20/01/2021 03:39:08 ML 4.0 Albania (Land) Mondo 40.93 20.38 23.7
20/01/2021 00:19:18 ML 2.6 12 km a nord-ovest di Milo (CT) Sicilia 37.78 15.01 24.8
19/01/2021 22:17:35 ML 2.1 Costa Siciliana nord-occidentale (Trapani) Mare 38.29 12.92 3.8
19/01/2021 22:15:07 ML 2.5 Costa Siciliana nord-occidentale (Trapani) Mare 38.30 12.89 4.1
19/01/2021 05:44:31 ML 3.8 Croatia (Land) Mondo 45.35 16.22 10.0
19/01/2021 03:46:21 Mwp 6.4 San Juan Province, Argentina (Land: Argentina) Mondo -31.83 -68.67 19.5
19/01/2021 01:38:03 ML 2.2 6 km a nord di Sperlinga (EN) Sicilia 37.82 14.34 9.5
19/01/2021 00:52:35 ML 2.6 7 km a nord di Sperlinga (EN) Sicilia 37.83 14.34 4.4
18/01/2021 20:18:46 ML 2.3 4 km a sud di Moio Alcantara (ME) Sicilia 37.86 15.05 20.1
18/01/2021 15:04:22 ML 2.1 Costa Marchigiana Anconetana (Ancona) Mare 43.94 13.38 5.0
18/01/2021 14:58:42 ML 2.1 5 km a sud di Moio Alcantara (ME) Sicilia 37.86 15.05 11.3
18/01/2021 08:31:01 ML 3.2 2 km a sud-ovest di Salvitelle (SA) Campania 40.58 15.44 16.0
18/01/2021 03:06:12 ML 2.4 6 km a nord di Sperlinga (EN) Sicilia 37.82 14.35 4.3
18/01/2021 00:13:40 ML 3.5 4 km a nord di Anzi (PZ) Basilicata 40.55 15.93 42.7
18/01/2021 00:01:40 ML 2.6 2 km a nord di Porto Mantovano (MN) Lombardia 45.21 10.79 17.5
17/01/2021 21:36:39 ML 3.5 Croatia (Land) Mondo 45.40 16.29 7.3
17/01/2021 18:11:36 ML 2.0 1 km a sud-est di Reitano (ME) Sicilia 37.96 14.35 18.9
17/01/2021 18:10:53 ML 2.3 2 km a sud di Reitano (ME) Sicilia 37.96 14.34 24.6
17/01/2021 18:09:30 ML 2.3 3 km a sud-ovest di Mistretta (ME) Sicilia 37.92 14.33 24.8
17/01/2021 17:38:20 ML 2.0 7 km a sud di Moio Alcantara (ME) Sicilia 37.84 15.04 15.7
17/01/2021 17:13:09 ML 2.4 3 km a nord-ovest di Mistretta (ME) Sicilia 37.95 14.33 25.7
17/01/2021 17:11:31 ML 3.0 1 km a nord-ovest di Mistretta (ME) Sicilia 37.94 14.35 9.1
17/01/2021 11:50:54 ML 2.1 5 km a nord di Cottanello (RI) Lazio 42.45 12.69 9.3
17/01/2021 11:27:25 ML 2.6 1 km a sud-est di Bussero (MI) Lombardia 45.53 9.39 47.7
17/01/2021 08:04:04 ML 2.4 11 km a nord di Ragalna (CT) Sicilia 37.73 14.95 1.7
17/01/2021 00:54:55 ML 3.4 2 km a nord-ovest di Verzegnis (UD) Friuli Venezia Giulia 46.40 12.98 8.0
16/01/2021 22:08:14 ML 3.2 6 km a sud di Moio Alcantara (ME) Sicilia 37.84 15.04 17.9
16/01/2021 18:47:37 ML 3.4 11 km a ovest di Milo (CT) Sicilia 37.76 15.00 1.1
16/01/2021 16:21:10 ML 3.1 6 km a sud di Moio Alcantara (ME) Sicilia 37.85 15.05 16.0
16/01/2021 14:18:35 ML 2.3 Costa Siciliana nord-orientale (Messina) Mare 38.33 15.45 119.0
16/01/2021 10:59:27 ML 3.3 Croatia (Land) Mondo 45.34 16.40 10.0
16/01/2021 03:37:41 ML 2.0 3 km a nord di Monte Cavallo (MC) Marche 43.02 13.01 7.4
16/01/2021 01:26:57 ML 2.0 7 km a ovest di Accumoli (RI) Lazio 42.71 13.16 10.7
15/01/2021 19:50:35 ML 2.0 5 km a est di Cerreto d`Esi (AN) Marche 43.31 13.04 7.3
15/01/2021 13:55:46 ML 2.1 10 km a ovest di Milo (CT) Sicilia 37.76 15.01 1.0
15/01/2021 13:01:36 ML 4.1 Croatia (Land) Mondo 45.42 16.03 10.0
15/01/2021 07:37:30 ML 2.2 2 km a nord di Ragogna (UD) Friuli Venezia Giulia 46.20 12.98 8.7
15/01/2021 03:21:23 ML 2.1 3 km a sud-est di Forgaria nel Friuli (UD) Friuli Venezia Giulia 46.21 13.00 9.6
14/01/2021 23:09:14 ML 2.3 3 km a ovest di Morcone (BN) Campania 41.34 14.63 9.3
14/01/2021 19:28:18 Mwp 6.3 Sulawesi, Indonesia (Land: Indonesia) Mondo -2.93 118.98 19.5
14/01/2021 14:28:07 ML 2.6 3 km a est di Pietralunga (PG) Umbria 43.45 12.47 8.8
14/01/2021 13:16:15 ML 3.2 6 km nord-est Lagonegro (PZ) Basilicata 40.18 15.79 268.5
14/01/2021 12:52:35 ML 2.0 3 km a est di Pietralunga (PG) Umbria 43.45 12.47 8.7
14/01/2021 08:18:48 ML 3.5 Mar Ionio Meridionale (MARE) Mare 37.27 16.49 38.1
13/01/2021 15:27:47 ML 2.0 10 km a ovest di Milo (CT) Sicilia 37.76 15.01 1.0
13/01/2021 08:58:19 ML 2.1 4 km a nord di Giffoni Valle Piana (SA) Campania 40.76 14.94 10.0
13/01/2021 08:18:17 ML 2.3 6 km a ovest di Sperlinga (EN) Sicilia 37.77 14.29 24.1
Locations of visitors to this page (counting)
- subnet mask - partners - ipcheck - favicon - speedtest - canale youtube - programmone